createdAt,value
2019-04-12T00:02:37.680Z,5.70
2019-04-12T00:05:08.089Z,5.70
2019-04-12T00:07:38.228Z,5.60
2019-04-12T00:10:14.433Z,5.60
2019-04-12T00:12:41.128Z,5.50
2019-04-12T00:15:13.655Z,5.40
2019-04-12T00:17:41.835Z,5.40
2019-04-12T00:20:13.696Z,5.30
2019-04-12T00:22:46.426Z,5.30
2019-04-12T00:25:14.994Z,5.30
2019-04-12T00:27:49.451Z,5.30
2019-04-12T00:30:22.037Z,5.20
2019-04-12T00:32:51.334Z,5.10
2019-04-12T00:35:26.457Z,5.20
2019-04-12T00:37:55.199Z,5.30
2019-04-12T00:40:31.483Z,5.30
2019-04-12T00:43:13.805Z,5.40
2019-04-12T00:45:55.181Z,5.30
2019-04-12T00:48:23.851Z,5.30
2019-04-12T00:51:04.241Z,5.30
2019-04-12T00:53:44.272Z,5.30
2019-04-12T00:56:16.441Z,5.30
2019-04-12T00:58:49.239Z,5.10
2019-04-12T01:01:21.193Z,5.10
2019-04-12T01:04:02.280Z,5.00
2019-04-12T01:06:30.743Z,5.00
2019-04-12T01:09:16.197Z,5.00
2019-04-12T01:11:46.387Z,4.90
2019-04-12T01:14:12.595Z,4.90
2019-04-12T01:16:41.832Z,5.00
2019-04-12T01:19:11.782Z,4.90
2019-04-12T01:21:41.493Z,4.90
2019-04-12T01:24:12.790Z,4.90
2019-04-12T01:26:39.944Z,5.00
2019-04-12T01:29:11.199Z,5.00
2019-04-12T01:31:40.365Z,5.00
2019-04-12T01:34:06.524Z,5.00
2019-04-12T01:36:32.782Z,5.00
2019-04-12T01:39:01.129Z,5.00
2019-04-12T01:41:30.154Z,5.00
2019-04-12T01:44:01.745Z,5.10
2019-04-12T01:46:37.888Z,5.10
2019-04-12T01:49:09.852Z,5.00
2019-04-12T01:51:37.768Z,5.10
2019-04-12T01:54:09.087Z,5.10
2019-04-12T01:56:36.240Z,5.10
2019-04-12T01:59:05.456Z,5.10
2019-04-12T02:01:40.660Z,5.00
2019-04-12T02:04:08.889Z,4.80
2019-04-12T02:06:43.164Z,4.70
2019-04-12T02:09:10.441Z,4.70
2019-04-12T02:11:37.899Z,4.60
2019-04-12T02:14:11.354Z,4.60
2019-04-12T02:16:37.523Z,4.50
2019-04-12T02:19:08.671Z,4.40
2019-04-12T02:21:38.312Z,4.40
2019-04-12T02:24:13.222Z,4.30
2019-04-12T02:26:41.490Z,4.30
2019-04-12T02:29:08.652Z,4.20
2019-04-12T02:31:37.027Z,4.20
2019-04-12T02:34:21.541Z,4.10
2019-04-12T02:36:52.203Z,4.10
2019-04-12T02:39:23.355Z,4.10
2019-04-12T02:41:50.805Z,4.10
2019-04-12T02:44:19.741Z,4.00
2019-04-12T02:47:11.194Z,4.00
2019-04-12T02:49:57.685Z,3.90
2019-04-12T02:52:32.530Z,4.00
2019-04-12T02:55:02.236Z,4.00
2019-04-12T02:57:45.919Z,3.90
2019-04-12T03:00:16.020Z,3.90
2019-04-12T03:02:57.206Z,3.80
2019-04-12T03:05:26.852Z,3.80
2019-04-12T03:07:54.212Z,3.70
2019-04-12T03:10:26.558Z,3.80
2019-04-12T03:13:02.557Z,3.80
2019-04-12T03:15:31.959Z,3.70
2019-04-12T03:17:58.312Z,3.70
2019-04-12T03:20:31.097Z,3.60
2019-04-12T03:23:18.414Z,3.60
2019-04-12T03:25:58.339Z,3.70
2019-04-12T03:28:33.954Z,3.70
2019-04-12T03:31:03.141Z,3.70
2019-04-12T03:33:39.335Z,3.80
2019-04-12T03:36:06.141Z,3.70
2019-04-12T03:38:40.989Z,3.70
2019-04-12T03:41:07.465Z,3.70
2019-04-12T03:43:33.828Z,3.70
2019-04-12T03:46:10.031Z,3.60
2019-04-12T03:48:39.420Z,3.80
2019-04-12T03:51:15.580Z,3.90
2019-04-12T03:53:47.435Z,3.90
2019-04-12T03:56:25.018Z,4.00
2019-04-12T03:59:19.050Z,4.00
2019-04-12T04:01:48.285Z,4.00
2019-04-12T04:04:37.284Z,3.90
2019-04-12T04:07:07.691Z,3.90
2019-04-12T04:09:34.350Z,3.80
2019-04-12T04:12:02.650Z,3.80
2019-04-12T04:14:33.180Z,3.80
2019-04-12T04:17:21.097Z,3.80
2019-04-12T04:19:53.978Z,3.80
2019-04-12T04:22:20.714Z,3.80
2019-04-12T04:24:59.246Z,3.90
2019-04-12T04:27:32.134Z,3.90
2019-04-12T04:30:25.645Z,3.80
2019-04-12T04:33:03.483Z,3.70
2019-04-12T04:35:43.202Z,3.80
2019-04-12T04:38:26.834Z,3.80
2019-04-12T04:40:56.651Z,3.70
2019-04-12T04:43:27.777Z,3.80
2019-04-12T04:46:01.985Z,3.90
2019-04-12T04:48:42.846Z,4.00
2019-04-12T04:51:17.436Z,4.00
2019-04-12T04:53:56.661Z,4.00
2019-04-12T04:56:35.215Z,4.10
2019-04-12T04:59:11.235Z,4.10
2019-04-12T05:01:41.296Z,4.10
2019-04-12T05:04:21.323Z,4.10
2019-04-12T05:06:47.943Z,4.10
2019-04-12T05:09:21.017Z,4.00
2019-04-12T05:12:01.845Z,4.00
2019-04-12T05:14:30.006Z,4.00
2019-04-12T05:16:56.700Z,4.10
2019-04-12T05:19:27.629Z,4.20
2019-04-12T05:21:57.435Z,4.30
2019-04-12T05:24:31.482Z,4.30
2019-04-12T05:27:06.902Z,4.10
2019-04-12T05:29:33.265Z,4.10
2019-04-12T05:32:01.856Z,4.20
2019-04-12T05:34:30.831Z,4.20
2019-04-12T05:37:09.558Z,4.10
2019-04-12T05:39:38.850Z,4.10
2019-04-12T05:42:17.033Z,4.10
2019-04-12T05:44:53.645Z,4.30
2019-04-12T05:47:30.884Z,4.50
2019-04-12T05:50:20.765Z,4.60
2019-04-12T05:52:45.053Z,4.70
2019-04-12T05:55:41.628Z,4.70
2019-04-12T05:58:30.221Z,4.60
2019-04-12T06:01:06.765Z,4.60
2019-04-12T06:03:35.450Z,4.70
2019-04-12T06:06:03.935Z,4.60
2019-04-12T06:08:32.350Z,4.70
2019-04-12T06:10:59.805Z,4.80
2019-04-12T06:13:31.579Z,4.70
2019-04-12T06:16:11.728Z,4.80
2019-04-12T06:18:45.039Z,5.20
2019-04-12T06:21:19.553Z,5.40
2019-04-12T06:23:52.780Z,5.40
2019-04-12T06:26:51.432Z,5.30
2019-04-12T06:29:23.970Z,5.10
2019-04-12T06:31:51.244Z,5.00
2019-04-12T06:34:31.824Z,4.90
2019-04-12T06:36:59.354Z,5.00
2019-04-12T06:39:34.235Z,5.10
2019-04-12T06:42:01.487Z,5.00
2019-04-12T06:44:41.724Z,5.00
2019-04-12T06:47:16.347Z,5.00
2019-04-12T06:49:52.965Z,5.00
2019-04-12T06:52:26.769Z,5.00
2019-04-12T06:55:07.262Z,5.00
2019-04-12T06:57:59.193Z,5.10
2019-04-12T07:00:37.267Z,5.30
2019-04-12T07:03:23.581Z,5.50
2019-04-12T07:06:01.068Z,5.60
2019-04-12T07:08:28.183Z,5.70
2019-04-12T07:11:03.816Z,5.60
2019-04-12T07:13:37.317Z,5.60
2019-04-12T07:16:11.074Z,5.50
2019-04-12T07:18:39.986Z,5.40
2019-04-12T07:21:20.416Z,5.50
2019-04-12T07:23:48.718Z,5.60
2019-04-12T07:26:17.233Z,5.70
2019-04-12T07:28:58.283Z,5.80
2019-04-12T07:31:30.327Z,5.70
2019-04-12T07:33:57.530Z,5.60
2019-04-12T07:36:24.721Z,5.50
2019-04-12T07:38:54.835Z,5.70
2019-04-12T07:41:29.070Z,5.60
2019-04-12T07:44:04.448Z,5.50
2019-04-12T07:46:31.619Z,5.50
2019-04-12T07:49:00.908Z,5.60
2019-04-12T07:51:47.854Z,5.50
2019-04-12T07:54:18.985Z,5.60
2019-04-12T07:56:46.421Z,5.80
2019-04-12T07:59:22.445Z,6.00
2019-04-12T08:02:18.694Z,6.20
2019-04-12T08:04:58.928Z,6.10
2019-04-12T08:07:32.378Z,6.10
2019-04-12T08:10:06.870Z,5.90
2019-04-12T08:12:33.100Z,6.20
2019-04-12T08:15:13.288Z,6.40
2019-04-12T08:17:37.565Z,6.50
2019-04-12T08:20:06.750Z,6.40
2019-04-12T08:22:33.087Z,6.50
2019-04-12T08:25:01.389Z,6.60
2019-04-12T08:27:29.738Z,7.00
2019-04-12T08:30:04.422Z,6.80
2019-04-12T08:32:32.456Z,6.90
2019-04-12T08:35:07.575Z,7.00
2019-04-12T08:37:34.905Z,7.30
2019-04-12T08:40:05.393Z,7.40
2019-04-12T08:42:36.173Z,7.60
2019-04-12T08:45:06.703Z,7.70
2019-04-12T08:47:33.094Z,7.80
2019-04-12T08:50:09.778Z,7.90
2019-04-12T08:52:40.260Z,7.90
2019-04-12T08:55:11.058Z,7.80
2019-04-12T08:57:38.368Z,7.80
2019-04-12T09:00:15.499Z,7.50
2019-04-12T09:02:44.871Z,7.40
2019-04-12T09:05:15.019Z,7.40
2019-04-12T09:07:41.279Z,7.30
2019-04-12T09:10:14.194Z,7.30
2019-04-12T09:12:40.408Z,7.60
2019-04-12T09:15:07.955Z,7.80
2019-04-12T09:17:35.656Z,7.50
2019-04-12T09:20:16.119Z,7.50
2019-04-12T09:22:48.377Z,7.30
2019-04-12T09:25:28.179Z,7.50
2019-04-12T09:28:03.033Z,7.80
2019-04-12T09:30:36.554Z,7.70
2019-04-12T09:33:08.630Z,7.70
2019-04-12T09:35:31.714Z,7.90
2019-04-12T09:37:58.976Z,8.00
2019-04-12T09:40:25.263Z,8.00
2019-04-12T09:42:56.334Z,8.20
2019-04-12T09:45:30.353Z,8.20
2019-04-12T09:48:00.356Z,8.40
2019-04-12T09:50:26.876Z,8.50
2019-04-12T09:53:07.180Z,8.60
2019-04-12T09:55:45.784Z,8.60
2019-04-12T10:00:47.387Z,8.80
2019-04-12T10:03:15.711Z,8.90
2019-04-12T10:05:45.645Z,9.00
2019-04-12T10:08:19.758Z,9.10
2019-04-12T10:10:52.114Z,9.10
2019-04-12T10:13:26.892Z,9.10
2019-04-12T10:15:53.067Z,9.10
2019-04-12T10:18:19.213Z,8.90
2019-04-12T10:20:52.536Z,8.30
2019-04-12T10:23:24.828Z,8.60
2019-04-12T10:25:51.115Z,8.50
2019-04-12T10:28:20.019Z,8.60
2019-04-12T10:30:54.119Z,8.70
2019-04-12T10:33:20.287Z,8.90
2019-04-12T10:35:48.521Z,8.70
2019-04-12T10:38:14.771Z,8.50
2019-04-12T10:40:42.004Z,8.60
2019-04-12T10:43:13.450Z,8.90
2019-04-12T10:45:57.584Z,8.70
2019-04-12T10:48:40.824Z,8.80
2019-04-12T10:51:12.409Z,8.90
2019-04-12T10:53:50.750Z,9.00
2019-04-12T10:56:22.959Z,9.00
2019-04-12T10:59:02.406Z,9.00
2019-04-12T11:01:21.388Z,9.10
2019-04-12T11:03:50.764Z,9.10
2019-04-12T11:06:30.356Z,8.60
2019-04-12T11:08:59.990Z,8.50
2019-04-12T11:11:30.038Z,8.50
2019-04-12T11:14:00.671Z,8.60
2019-04-12T11:16:28.903Z,8.90
2019-04-12T11:19:02.241Z,9.30
2019-04-12T11:21:30.611Z,9.20
2019-04-12T11:23:59.832Z,9.00
2019-04-12T11:26:28.156Z,9.10
2019-04-12T11:28:56.886Z,8.90
2019-04-12T11:31:24.245Z,8.50
2019-04-12T11:33:59.487Z,8.50
2019-04-12T11:36:27.690Z,8.80
2019-04-12T11:39:06.305Z,9.30
2019-04-12T11:41:44.823Z,9.40
2019-04-12T11:44:20.966Z,9.60
2019-04-12T11:46:55.413Z,9.70
2019-04-12T11:49:22.821Z,9.60
2019-04-12T11:51:49.073Z,9.70
2019-04-12T11:54:24.349Z,9.70
2019-04-12T11:56:58.804Z,9.80
2019-04-12T11:59:33.266Z,9.70
2019-04-12T12:02:19.125Z,9.30
2019-04-12T12:05:09.365Z,9.20
2019-04-12T12:07:49.821Z,9.00
2019-04-12T12:10:18.059Z,8.80
2019-04-12T12:13:05.798Z,8.90
2019-04-12T12:15:50.332Z,9.00
2019-04-12T12:18:26.217Z,9.10
2019-04-12T12:20:56.451Z,9.30
2019-04-12T12:23:42.207Z,9.30
2019-04-12T12:25:59.637Z,9.30
2019-04-12T12:28:27.822Z,9.20
2019-04-12T12:30:57.092Z,9.00
2019-04-12T12:33:25.224Z,8.80
2019-04-12T12:35:52.349Z,9.10
2019-04-12T12:38:30.357Z,9.30
2019-04-12T12:40:57.411Z,9.40
2019-04-12T12:43:35.702Z,9.50
2019-04-12T12:46:03.178Z,9.40
2019-04-12T12:48:30.833Z,9.00
2019-04-12T12:51:07.275Z,8.90
2019-04-12T12:53:40.554Z,8.80
2019-04-12T12:56:07.129Z,9.10
2019-04-12T12:58:34.253Z,9.30
2019-04-12T13:01:01.550Z,9.30
2019-04-12T13:03:29.542Z,9.30
2019-04-12T13:06:01.783Z,9.10
2019-04-12T13:08:27.057Z,8.60
2019-04-12T13:10:55.965Z,8.50
2019-04-12T13:13:27.145Z,8.60
2019-04-12T13:15:57.207Z,8.60
2019-04-12T13:18:27.627Z,8.60
2019-04-12T13:20:57.237Z,8.70
2019-04-12T13:23:27.511Z,8.80
2019-04-12T13:26:02.692Z,8.80
2019-04-12T13:28:31.128Z,8.80
2019-04-12T13:31:24.025Z,8.70
2019-04-12T13:34:17.623Z,8.80
2019-04-12T13:36:57.367Z,8.70
2019-04-12T13:39:38.397Z,8.40
2019-04-12T13:42:08.550Z,8.40
2019-04-12T13:44:35.865Z,8.60
2019-04-12T13:47:04.490Z,8.70
2019-04-12T13:49:36.793Z,8.80
2019-04-12T13:52:03.083Z,8.90
2019-04-12T13:54:35.416Z,8.80
2019-04-12T13:57:03.540Z,8.60
2019-04-12T13:59:33.288Z,8.40
2019-04-12T14:02:02.643Z,8.40
2019-04-12T14:04:40.705Z,8.60
2019-04-12T14:07:06.848Z,8.80
2019-04-12T14:09:46.876Z,8.80
2019-04-12T14:12:17.874Z,8.50
2019-04-12T14:14:51.070Z,8.40
2019-04-12T14:17:19.368Z,8.30
2019-04-12T14:19:48.597Z,8.00
2019-04-12T14:22:18.840Z,8.00
2019-04-12T14:24:49.268Z,8.10
2019-04-12T14:27:23.103Z,8.10
2019-04-12T14:29:49.213Z,8.00
2019-04-12T14:32:30.096Z,7.90
2019-04-12T14:35:25.206Z,7.90
2019-04-12T14:38:05.690Z,8.00
2019-04-12T14:40:44.242Z,8.00
2019-04-12T14:43:22.215Z,8.10
2019-04-12T14:45:54.980Z,8.20
2019-04-12T14:48:28.913Z,8.10
2019-04-12T14:51:00.196Z,8.00
2019-04-12T14:53:33.830Z,8.00
2019-04-12T14:56:02.390Z,8.00
2019-04-12T14:58:42.595Z,7.90
2019-04-12T15:01:10.300Z,7.80
2019-04-12T15:03:36.903Z,7.80
2019-04-12T15:06:04.074Z,7.90
2019-04-12T15:08:30.217Z,7.70
2019-04-12T15:11:01.209Z,7.60
2019-04-12T15:13:35.841Z,7.70
2019-04-12T15:16:09.467Z,7.60
2019-04-12T15:18:41.418Z,7.60
2019-04-12T15:21:07.712Z,7.60
2019-04-12T15:23:36.338Z,7.60
2019-04-12T15:26:03.902Z,7.60
2019-04-12T15:28:33.144Z,7.60
2019-04-12T15:31:08.528Z,7.70
2019-04-12T15:33:36.936Z,7.70
2019-04-12T15:36:14.403Z,7.70
2019-04-12T15:38:47.379Z,7.60
2019-04-12T15:41:17.679Z,7.70
2019-04-12T15:43:46.999Z,7.80
2019-04-12T15:46:18.124Z,7.60
2019-04-12T15:48:44.312Z,7.40
2019-04-12T15:51:34.324Z,7.20
2019-04-12T15:54:06.924Z,7.30
2019-04-12T15:56:37.169Z,7.40
2019-04-12T15:59:10.068Z,7.50
2019-04-12T16:01:40.483Z,7.50
2019-04-12T16:04:10.811Z,7.50
2019-04-12T16:06:51.427Z,7.50
2019-04-12T16:09:19.343Z,7.40
2019-04-12T16:11:55.149Z,7.50
2019-04-12T16:14:29.616Z,7.30
2019-04-12T16:17:19.232Z,7.20
2019-04-12T16:19:52.726Z,7.30
2019-04-12T16:22:29.149Z,7.50
2019-04-12T16:25:08.537Z,7.40
2019-04-12T16:27:40.179Z,7.40
2019-04-12T16:30:31.024Z,7.80
2019-04-12T16:33:08.821Z,8.10
2019-04-12T16:36:05.890Z,8.00
2019-04-12T16:38:43.137Z,7.90
2019-04-12T16:41:15.312Z,7.60
2019-04-12T16:43:42.447Z,7.50
2019-04-12T16:46:10.737Z,7.40
2019-04-12T16:48:46.352Z,7.30
2019-04-12T16:51:22.758Z,7.30
2019-04-12T16:53:51.882Z,7.20
2019-04-12T16:56:20.060Z,7.20
2019-04-12T16:58:47.491Z,7.00
2019-04-12T17:01:17.444Z,7.10
2019-04-12T17:03:47.061Z,7.10
2019-04-12T17:06:14.258Z,6.90
2019-04-12T17:08:42.765Z,7.00
2019-04-12T17:11:14.897Z,7.00
2019-04-12T17:13:50.401Z,7.00
2019-04-12T17:16:16.562Z,7.10
2019-04-12T17:18:48.376Z,7.10
2019-04-12T17:21:20.692Z,7.10
2019-04-12T17:23:54.877Z,7.00
2019-04-12T17:26:29.811Z,6.90
2019-04-12T17:28:57.886Z,6.90
2019-04-12T17:31:48.407Z,7.00
2019-04-12T17:34:03.883Z,6.90
2019-04-12T17:36:29.971Z,6.90
2019-04-12T17:38:57.261Z,6.90
2019-04-12T17:41:24.842Z,6.90
2019-04-12T17:43:51.944Z,6.90
2019-04-12T17:46:20.122Z,6.90
2019-04-12T17:48:50.465Z,6.90
2019-04-12T17:51:33.813Z,6.90
2019-04-12T17:54:10.735Z,7.00
2019-04-12T17:56:42.622Z,7.00
2019-04-12T17:59:16.379Z,6.90
2019-04-12T18:02:03.178Z,6.80
2019-04-12T18:04:31.417Z,6.70
2019-04-12T18:07:01.816Z,6.60
2019-04-12T18:09:32.310Z,6.70
2019-04-12T18:12:07.095Z,6.70
2019-04-12T18:14:35.211Z,6.80
2019-04-12T18:17:10.108Z,6.90
2019-04-12T18:19:41.344Z,7.00
2019-04-12T18:22:12.259Z,7.20
2019-04-12T18:24:56.815Z,7.30
2019-04-12T18:27:22.945Z,7.20
2019-04-12T18:29:51.029Z,7.00
2019-04-12T18:32:20.316Z,7.00
2019-04-12T18:34:51.903Z,6.90
2019-04-12T18:37:28.865Z,6.90
2019-04-12T18:39:59.293Z,7.00
2019-04-12T18:42:25.661Z,7.00
2019-04-12T18:44:57.895Z,7.00
2019-04-12T18:47:25.557Z,6.90
2019-04-12T18:49:55.282Z,6.80
2019-04-12T18:52:27.726Z,6.70
2019-04-12T18:55:16.411Z,6.70
2019-04-12T18:57:50.168Z,6.70
2019-04-12T19:00:23.339Z,6.90
2019-04-12T19:02:52.078Z,7.10
2019-04-12T19:05:23.164Z,7.10
2019-04-12T19:07:51.604Z,7.10
2019-04-12T19:10:26.539Z,7.10
2019-04-12T19:12:56.845Z,7.00
2019-04-12T19:15:26.114Z,7.00
2019-04-12T19:17:58.168Z,7.00
2019-04-12T19:20:38.011Z,7.00
2019-04-12T19:23:11.964Z,6.90
2019-04-12T19:25:53.083Z,6.80
2019-04-12T19:28:29.633Z,6.90
2019-04-12T19:30:56.868Z,6.90
2019-04-12T19:33:37.143Z,6.90
2019-04-12T19:36:22.326Z,6.90
2019-04-12T19:39:12.675Z,6.80
2019-04-12T19:41:45.152Z,6.70
2019-04-12T19:44:15.549Z,6.70
2019-04-12T19:46:43.882Z,6.70
2019-04-12T19:49:22.089Z,6.60
2019-04-12T19:51:49.335Z,6.70
2019-04-12T19:54:19.237Z,6.70
2019-04-12T19:56:51.357Z,6.70
2019-04-12T19:59:21.079Z,6.70
2019-04-12T20:01:51.297Z,6.70
2019-04-12T20:04:19.078Z,6.70
2019-04-12T20:06:45.455Z,6.60
2019-04-12T20:09:17.047Z,6.60
2019-04-12T20:11:51.018Z,6.60
2019-04-12T20:14:22.624Z,6.50
2019-04-12T20:16:53.771Z,6.40
2019-04-12T20:19:25.458Z,6.50
2019-04-12T20:21:54.460Z,6.50
2019-04-12T20:24:20.674Z,6.40
2019-04-12T20:27:00.558Z,6.30
2019-04-12T20:29:40.735Z,6.10
2019-04-12T20:32:07.824Z,6.00
2019-04-12T20:34:43.712Z,5.80
2019-04-12T20:37:23.603Z,5.80
2019-04-12T20:39:53.645Z,5.90
2019-04-12T20:42:22.587Z,5.80
2019-04-12T20:44:50.898Z,5.80
2019-04-12T20:47:17.144Z,5.80
2019-04-12T20:49:44.634Z,5.90
2019-04-12T20:52:19.263Z,5.90
2019-04-12T20:54:46.286Z,6.00
2019-04-12T20:57:12.511Z,6.00
2019-04-12T20:59:49.211Z,5.90
2019-04-12T21:02:32.282Z,5.80
2019-04-12T21:04:56.063Z,5.70
2019-04-12T21:07:23.403Z,5.70
2019-04-12T21:09:54.370Z,5.70
2019-04-12T21:12:22.884Z,5.70
2019-04-12T21:14:54.371Z,5.60
2019-04-12T21:17:23.383Z,5.50
2019-04-12T21:19:55.343Z,5.50
2019-04-12T21:22:28.506Z,5.40
2019-04-12T21:24:57.885Z,5.30
2019-04-12T21:27:35.165Z,5.40
2019-04-12T21:30:05.282Z,5.50
2019-04-12T21:32:32.334Z,5.50
2019-04-12T21:35:17.218Z,5.40
2019-04-12T21:37:40.770Z,5.40
2019-04-12T21:40:08.411Z,5.40
2019-04-12T21:42:42.998Z,5.50
2019-04-12T21:45:14.711Z,5.40
2019-04-12T21:47:43.905Z,5.40
2019-04-12T21:50:12.887Z,5.30
2019-04-12T21:52:40.310Z,5.30
2019-04-12T21:55:16.383Z,5.30
2019-04-12T21:57:42.600Z,5.40
2019-04-12T22:00:16.716Z,5.30
2019-04-12T22:02:45.420Z,5.10
2019-04-12T22:05:12.960Z,5.10
2019-04-12T22:07:51.132Z,5.10
2019-04-12T22:10:18.548Z,5.10
2019-04-12T22:12:47.742Z,5.20
2019-04-12T22:15:16.228Z,5.20
2019-04-12T22:17:43.351Z,5.20
2019-04-12T22:20:10.761Z,5.10
2019-04-12T22:22:38.224Z,5.10
2019-04-12T22:25:04.576Z,5.10
2019-04-12T22:27:31.702Z,5.00
2019-04-12T22:29:58.832Z,4.90
2019-04-12T22:32:32.577Z,4.90
2019-04-12T22:34:59.764Z,4.90
2019-04-12T22:37:26.960Z,4.90
2019-04-12T22:39:54.321Z,4.90
2019-04-12T22:42:21.661Z,4.70
2019-04-12T22:44:51.184Z,4.80
2019-04-12T22:47:20.396Z,4.80
2019-04-12T22:49:52.290Z,4.70
2019-04-12T22:52:21.920Z,4.60
2019-04-12T22:54:51.266Z,4.50
2019-04-12T22:57:18.678Z,4.50
2019-04-12T22:59:52.903Z,4.30
2019-04-12T23:02:22.308Z,4.30
2019-04-12T23:04:59.837Z,4.40
2019-04-12T23:07:28.080Z,4.30
2019-04-12T23:09:56.465Z,4.40
2019-04-12T23:12:29.423Z,4.40
2019-04-12T23:14:57.584Z,4.30
2019-04-12T23:17:30.609Z,4.30
2019-04-12T23:20:07.506Z,4.30
2019-04-12T23:22:35.665Z,4.30
2019-04-12T23:25:21.575Z,4.30
2019-04-12T23:27:48.465Z,4.20
2019-04-12T23:30:35.552Z,4.10
2019-04-12T23:33:12.164Z,4.30
2019-04-12T23:35:45.722Z,4.80
2019-04-12T23:38:22.756Z,4.90
2019-04-12T23:40:48.973Z,4.90
2019-04-12T23:43:24.257Z,5.00
2019-04-12T23:45:56.322Z,5.00
2019-04-12T23:48:26.886Z,5.00
2019-04-12T23:50:56.718Z,5.10
2019-04-12T23:53:31.866Z,5.30
2019-04-12T23:56:01.122Z,5.10
2019-04-12T23:58:32.718Z,5.00
